sensor_id;sensor_type;location;lat;lon;timestamp;P1;durP1;ratioP1;P2;durP2;ratioP2
70444;SDS011;57902;49.638;11.070;2023-01-30T00:01:04;21.17;;;8.52;;
70444;SDS011;57902;49.638;11.070;2023-01-30T00:03:32;21.40;;;7.93;;
70444;SDS011;57902;49.638;11.070;2023-01-30T00:05:59;24.17;;;8.00;;
70444;SDS011;57902;49.638;11.070;2023-01-30T00:08:26;19.92;;;8.23;;
70444;SDS011;57902;49.638;11.070;2023-01-30T00:10:52;20.67;;;7.80;;
70444;SDS011;57902;49.638;11.070;2023-01-30T00:13:19;23.90;;;8.10;;
70444;SDS011;57902;49.638;11.070;2023-01-30T00:15:48;23.77;;;8.07;;
70444;SDS011;57902;49.638;11.070;2023-01-30T00:18:14;23.27;;;7.60;;
70444;SDS011;57902;49.638;11.070;2023-01-30T00:20:41;20.95;;;7.95;;
70444;SDS011;57902;49.638;11.070;2023-01-30T00:23:07;21.27;;;8.13;;
70444;SDS011;57902;49.638;11.070;2023-01-30T00:25:34;20.35;;;8.23;;
70444;SDS011;57902;49.638;11.070;2023-01-30T00:28:01;23.45;;;7.97;;
70444;SDS011;57902;49.638;11.070;2023-01-30T00:30:27;20.40;;;7.97;;
70444;SDS011;57902;49.638;11.070;2023-01-30T00:32:58;24.58;;;8.65;;
70444;SDS011;57902;49.638;11.070;2023-01-30T00:35:25;23.73;;;8.00;;
70444;SDS011;57902;49.638;11.070;2023-01-30T00:37:54;27.67;;;8.82;;
70444;SDS011;57902;49.638;11.070;2023-01-30T00:40:23;24.33;;;8.90;;
70444;SDS011;57902;49.638;11.070;2023-01-30T00:42:51;23.98;;;8.23;;
70444;SDS011;57902;49.638;11.070;2023-01-30T00:45:36;23.23;;;8.40;;
70444;SDS011;57902;49.638;11.070;2023-01-30T00:48:23;20.70;;;8.55;;
70444;SDS011;57902;49.638;11.070;2023-01-30T00:50:49;21.08;;;7.72;;
70444;SDS011;57902;49.638;11.070;2023-01-30T00:53:16;22.05;;;8.13;;
70444;SDS011;57902;49.638;11.070;2023-01-30T00:55:43;21.05;;;7.88;;
70444;SDS011;57902;49.638;11.070;2023-01-30T00:58:13;21.40;;;8.13;;
70444;SDS011;57902;49.638;11.070;2023-01-30T01:00:40;21.75;;;7.95;;
70444;SDS011;57902;49.638;11.070;2023-01-30T01:03:06;23.30;;;8.40;;
70444;SDS011;57902;49.638;11.070;2023-01-30T01:05:33;23.35;;;8.38;;
70444;SDS011;57902;49.638;11.070;2023-01-30T01:08:00;20.02;;;8.07;;
70444;SDS011;57902;49.638;11.070;2023-01-30T01:10:26;23.35;;;7.95;;
70444;SDS011;57902;49.638;11.070;2023-01-30T01:12:53;23.33;;;8.57;;
70444;SDS011;57902;49.638;11.070;2023-01-30T01:15:21;22.35;;;8.13;;
70444;SDS011;57902;49.638;11.070;2023-01-30T01:17:48;20.00;;;7.78;;
70444;SDS011;57902;49.638;11.070;2023-01-30T01:20:15;24.52;;;8.70;;
70444;SDS011;57902;49.638;11.070;2023-01-30T01:22:43;21.38;;;7.70;;
70444;SDS011;57902;49.638;11.070;2023-01-30T01:25:09;22.80;;;8.45;;
70444;SDS011;57902;49.638;11.070;2023-01-30T01:27:37;22.88;;;8.10;;
70444;SDS011;57902;49.638;11.070;2023-01-30T01:30:04;21.45;;;8.07;;
70444;SDS011;57902;49.638;11.070;2023-01-30T01:32:31;23.08;;;8.40;;
70444;SDS011;57902;49.638;11.070;2023-01-30T01:34:58;20.92;;;8.13;;
70444;SDS011;57902;49.638;11.070;2023-01-30T01:37:24;23.30;;;8.05;;
70444;SDS011;57902;49.638;11.070;2023-01-30T01:39:51;19.63;;;7.18;;
70444;SDS011;57902;49.638;11.070;2023-01-30T01:42:36;23.45;;;7.72;;
70444;SDS011;57902;49.638;11.070;2023-01-30T01:48:02;20.70;;;8.13;;
70444;SDS011;57902;49.638;11.070;2023-01-30T01:50:41;23.00;;;7.93;;
70444;SDS011;57902;49.638;11.070;2023-01-30T01:53:13;21.98;;;7.97;;
70444;SDS011;57902;49.638;11.070;2023-01-30T01:55:43;20.65;;;7.82;;
70444;SDS011;57902;49.638;11.070;2023-01-30T01:58:14;21.08;;;7.47;;
70444;SDS011;57902;49.638;11.070;2023-01-30T02:00:45;24.10;;;7.90;;
70444;SDS011;57902;49.638;11.070;2023-01-30T02:03:18;23.67;;;8.00;;
70444;SDS011;57902;49.638;11.070;2023-01-30T02:13:46;19.85;;;8.25;;
70444;SDS011;57902;49.638;11.070;2023-01-30T02:16:14;19.73;;;7.80;;
70444;SDS011;57902;49.638;11.070;2023-01-30T02:18:41;22.75;;;8.13;;
70444;SDS011;57902;49.638;11.070;2023-01-30T02:22:14;20.33;;;7.82;;
70444;SDS011;57902;49.638;11.070;2023-01-30T02:24:19;23.55;;;8.43;;
70444;SDS011;57902;49.638;11.070;2023-01-30T02:32:27;21.45;;;7.72;;
70444;SDS011;57902;49.638;11.070;2023-01-30T02:37:45;26.42;;;8.63;;
70444;SDS011;57902;49.638;11.070;2023-01-30T02:40:26;22.92;;;7.65;;
70444;SDS011;57902;49.638;11.070;2023-01-30T02:43:12;22.63;;;8.25;;
70444;SDS011;57902;49.638;11.070;2023-01-30T02:45:55;21.20;;;7.55;;
70444;SDS011;57902;49.638;11.070;2023-01-30T02:48:41;22.15;;;8.18;;
70444;SDS011;57902;49.638;11.070;2023-01-30T02:51:32;20.33;;;7.75;;
70444;SDS011;57902;49.638;11.070;2023-01-30T02:54:04;19.88;;;7.85;;
70444;SDS011;57902;49.638;11.070;2023-01-30T02:59:13;23.55;;;8.30;;
70444;SDS011;57902;49.638;11.070;2023-01-30T03:10:57;25.35;;;8.02;;
70444;SDS011;57902;49.638;11.070;2023-01-30T03:16:22;22.85;;;8.25;;
70444;SDS011;57902;49.638;11.070;2023-01-30T03:18:52;21.73;;;7.90;;
70444;SDS011;57902;49.638;11.070;2023-01-30T03:21:18;21.65;;;7.75;;
70444;SDS011;57902;49.638;11.070;2023-01-30T03:23:45;28.05;;;8.27;;
70444;SDS011;57902;49.638;11.070;2023-01-30T03:26:13;20.90;;;7.20;;
70444;SDS011;57902;49.638;11.070;2023-01-30T03:28:50;23.75;;;8.27;;
70444;SDS011;57902;49.638;11.070;2023-01-30T03:31:18;22.58;;;8.35;;
70444;SDS011;57902;49.638;11.070;2023-01-30T03:33:45;27.13;;;7.63;;
70444;SDS011;57902;49.638;11.070;2023-01-30T03:36:11;24.52;;;7.47;;
70444;SDS011;57902;49.638;11.070;2023-01-30T03:38:38;24.65;;;7.60;;
70444;SDS011;57902;49.638;11.070;2023-01-30T03:41:05;19.83;;;7.07;;
70444;SDS011;57902;49.638;11.070;2023-01-30T03:43:31;23.40;;;8.27;;
70444;SDS011;57902;49.638;11.070;2023-01-30T03:45:58;18.15;;;7.63;;
70444;SDS011;57902;49.638;11.070;2023-01-30T03:48:24;20.60;;;7.38;;
70444;SDS011;57902;49.638;11.070;2023-01-30T03:50:51;19.20;;;6.53;;
70444;SDS011;57902;49.638;11.070;2023-01-30T03:53:17;22.58;;;7.35;;
70444;SDS011;57902;49.638;11.070;2023-01-30T03:55:44;22.45;;;7.18;;
70444;SDS011;57902;49.638;11.070;2023-01-30T03:58:10;18.13;;;6.50;;
70444;SDS011;57902;49.638;11.070;2023-01-30T04:00:37;19.80;;;7.05;;
70444;SDS011;57902;49.638;11.070;2023-01-30T04:03:03;18.08;;;6.78;;
70444;SDS011;57902;49.638;11.070;2023-01-30T04:05:30;18.15;;;6.82;;
70444;SDS011;57902;49.638;11.070;2023-01-30T04:07:56;19.52;;;6.75;;
70444;SDS011;57902;49.638;11.070;2023-01-30T04:10:23;19.15;;;7.13;;
70444;SDS011;57902;49.638;11.070;2023-01-30T04:12:51;17.80;;;6.97;;
70444;SDS011;57902;49.638;11.070;2023-01-30T04:15:18;16.25;;;6.07;;
70444;SDS011;57902;49.638;11.070;2023-01-30T04:17:44;17.08;;;6.15;;
70444;SDS011;57902;49.638;11.070;2023-01-30T04:20:12;18.20;;;6.78;;
70444;SDS011;57902;49.638;11.070;2023-01-30T04:22:39;16.33;;;6.60;;
70444;SDS011;57902;49.638;11.070;2023-01-30T04:25:05;18.35;;;6.82;;
70444;SDS011;57902;49.638;11.070;2023-01-30T04:27:32;21.40;;;7.32;;
70444;SDS011;57902;49.638;11.070;2023-01-30T04:29:59;17.10;;;6.63;;
70444;SDS011;57902;49.638;11.070;2023-01-30T04:32:25;17.20;;;6.53;;
70444;SDS011;57902;49.638;11.070;2023-01-30T04:34:52;17.88;;;6.22;;
70444;SDS011;57902;49.638;11.070;2023-01-30T04:37:18;16.75;;;5.65;;
70444;SDS011;57902;49.638;11.070;2023-01-30T04:39:45;16.13;;;5.78;;
70444;SDS011;57902;49.638;11.070;2023-01-30T04:42:11;15.35;;;5.63;;
70444;SDS011;57902;49.638;11.070;2023-01-30T04:44:38;16.40;;;6.18;;
70444;SDS011;57902;49.638;11.070;2023-01-30T04:47:04;14.63;;;5.68;;
70444;SDS011;57902;49.638;11.070;2023-01-30T04:49:31;15.40;;;6.10;;
70444;SDS011;57902;49.638;11.070;2023-01-30T04:51:58;13.70;;;5.00;;
70444;SDS011;57902;49.638;11.070;2023-01-30T04:54:24;13.55;;;5.63;;
70444;SDS011;57902;49.638;11.070;2023-01-30T04:56:51;14.35;;;5.25;;
70444;SDS011;57902;49.638;11.070;2023-01-30T04:59:17;12.88;;;4.85;;
70444;SDS011;57902;49.638;11.070;2023-01-30T05:01:44;11.95;;;4.80;;
70444;SDS011;57902;49.638;11.070;2023-01-30T05:04:11;13.88;;;4.97;;
70444;SDS011;57902;49.638;11.070;2023-01-30T05:06:38;16.00;;;5.65;;
70444;SDS011;57902;49.638;11.070;2023-01-30T05:09:05;13.32;;;5.47;;
70444;SDS011;57902;49.638;11.070;2023-01-30T05:11:32;15.23;;;5.78;;
70444;SDS011;57902;49.638;11.070;2023-01-30T05:13:58;15.25;;;5.65;;
70444;SDS011;57902;49.638;11.070;2023-01-30T05:16:31;13.00;;;5.00;;
70444;SDS011;57902;49.638;11.070;2023-01-30T05:18:57;15.32;;;5.03;;
70444;SDS011;57902;49.638;11.070;2023-01-30T05:21:25;15.43;;;5.28;;
70444;SDS011;57902;49.638;11.070;2023-01-30T05:23:55;15.88;;;5.20;;
70444;SDS011;57902;49.638;11.070;2023-01-30T05:26:22;20.67;;;6.43;;
70444;SDS011;57902;49.638;11.070;2023-01-30T05:28:51;12.98;;;4.72;;
70444;SDS011;57902;49.638;11.070;2023-01-30T05:31:18;15.70;;;5.18;;
70444;SDS011;57902;49.638;11.070;2023-01-30T05:33:46;15.38;;;5.50;;
70444;SDS011;57902;49.638;11.070;2023-01-30T05:36:14;15.00;;;5.43;;
70444;SDS011;57902;49.638;11.070;2023-01-30T05:38:43;14.95;;;5.03;;
70444;SDS011;57902;49.638;11.070;2023-01-30T05:41:10;18.10;;;5.97;;
70444;SDS011;57902;49.638;11.070;2023-01-30T05:43:38;13.93;;;4.90;;
70444;SDS011;57902;49.638;11.070;2023-01-30T05:46:05;13.20;;;4.68;;
70444;SDS011;57902;49.638;11.070;2023-01-30T05:48:32;15.02;;;4.82;;
70444;SDS011;57902;49.638;11.070;2023-01-30T05:50:59;15.50;;;5.20;;
70444;SDS011;57902;49.638;11.070;2023-01-30T05:53:26;14.95;;;5.32;;
70444;SDS011;57902;49.638;11.070;2023-01-30T05:55:55;16.27;;;6.03;;
70444;SDS011;57902;49.638;11.070;2023-01-30T05:58:23;14.48;;;5.10;;
70444;SDS011;57902;49.638;11.070;2023-01-30T06:00:50;13.40;;;5.25;;
70444;SDS011;57902;49.638;11.070;2023-01-30T06:03:17;13.63;;;5.93;;
70444;SDS011;57902;49.638;11.070;2023-01-30T06:05:44;13.13;;;5.18;;
70444;SDS011;57902;49.638;11.070;2023-01-30T06:08:10;15.82;;;5.35;;
70444;SDS011;57902;49.638;11.070;2023-01-30T06:10:37;15.50;;;5.13;;
70444;SDS011;57902;49.638;11.070;2023-01-30T06:13:03;15.70;;;5.45;;
70444;SDS011;57902;49.638;11.070;2023-01-30T06:15:30;12.32;;;4.50;;
70444;SDS011;57902;49.638;11.070;2023-01-30T06:17:56;16.95;;;5.45;;
70444;SDS011;57902;49.638;11.070;2023-01-30T06:20:23;13.48;;;4.50;;
70444;SDS011;57902;49.638;11.070;2023-01-30T06:22:49;12.65;;;4.97;;
70444;SDS011;57902;49.638;11.070;2023-01-30T06:25:16;16.20;;;5.15;;
70444;SDS011;57902;49.638;11.070;2023-01-30T06:27:44;13.32;;;4.93;;
70444;SDS011;57902;49.638;11.070;2023-01-30T06:30:12;15.07;;;5.10;;
70444;SDS011;57902;49.638;11.070;2023-01-30T06:32:38;14.25;;;4.93;;
70444;SDS011;57902;49.638;11.070;2023-01-30T06:35:05;12.70;;;4.68;;
70444;SDS011;57902;49.638;11.070;2023-01-30T06:37:32;13.38;;;5.25;;
70444;SDS011;57902;49.638;11.070;2023-01-30T06:39:58;14.23;;;5.25;;
70444;SDS011;57902;49.638;11.070;2023-01-30T06:42:25;13.18;;;4.72;;
70444;SDS011;57902;49.638;11.070;2023-01-30T06:44:51;13.20;;;5.22;;
70444;SDS011;57902;49.638;11.070;2023-01-30T06:47:18;13.45;;;5.00;;
70444;SDS011;57902;49.638;11.070;2023-01-30T06:49:44;14.43;;;4.88;;
70444;SDS011;57902;49.638;11.070;2023-01-30T06:52:11;13.60;;;5.18;;
70444;SDS011;57902;49.638;11.070;2023-01-30T06:54:37;12.90;;;4.88;;
70444;SDS011;57902;49.638;11.070;2023-01-30T06:57:03;13.57;;;4.25;;
70444;SDS011;57902;49.638;11.070;2023-01-30T06:59:30;11.52;;;3.90;;
70444;SDS011;57902;49.638;11.070;2023-01-30T07:01:56;13.38;;;5.22;;
70444;SDS011;57902;49.638;11.070;2023-01-30T07:04:23;14.05;;;4.80;;
70444;SDS011;57902;49.638;11.070;2023-01-30T07:06:49;13.80;;;4.70;;
70444;SDS011;57902;49.638;11.070;2023-01-30T07:09:16;12.85;;;5.03;;
70444;SDS011;57902;49.638;11.070;2023-01-30T07:11:42;12.95;;;5.18;;
70444;SDS011;57902;49.638;11.070;2023-01-30T07:14:09;13.75;;;5.60;;
70444;SDS011;57902;49.638;11.070;2023-01-30T07:16:35;13.15;;;5.03;;
70444;SDS011;57902;49.638;11.070;2023-01-30T07:19:02;14.52;;;5.40;;
70444;SDS011;57902;49.638;11.070;2023-01-30T07:21:28;13.23;;;5.60;;
70444;SDS011;57902;49.638;11.070;2023-01-30T07:23:55;16.08;;;5.53;;
70444;SDS011;57902;49.638;11.070;2023-01-30T07:26:21;15.52;;;5.60;;
70444;SDS011;57902;49.638;11.070;2023-01-30T07:28:48;14.35;;;5.28;;
70444;SDS011;57902;49.638;11.070;2023-01-30T07:31:15;14.65;;;5.63;;
70444;SDS011;57902;49.638;11.070;2023-01-30T07:33:41;15.75;;;5.20;;
70444;SDS011;57902;49.638;11.070;2023-01-30T07:36:08;13.60;;;5.32;;
70444;SDS011;57902;49.638;11.070;2023-01-30T07:38:34;11.73;;;4.88;;
70444;SDS011;57902;49.638;11.070;2023-01-30T07:41:01;14.07;;;4.90;;
70444;SDS011;57902;49.638;11.070;2023-01-30T07:43:27;14.93;;;5.38;;
70444;SDS011;57902;49.638;11.070;2023-01-30T07:45:54;12.00;;;4.55;;
70444;SDS011;57902;49.638;11.070;2023-01-30T07:48:20;13.00;;;5.20;;
70444;SDS011;57902;49.638;11.070;2023-01-30T07:50:47;12.75;;;4.88;;
70444;SDS011;57902;49.638;11.070;2023-01-30T07:53:14;16.35;;;6.13;;
70444;SDS011;57902;49.638;11.070;2023-01-30T07:55:42;14.35;;;5.68;;
70444;SDS011;57902;49.638;11.070;2023-01-30T07:58:11;11.98;;;5.10;;
70444;SDS011;57902;49.638;11.070;2023-01-30T08:03:05;12.30;;;4.30;;
70444;SDS011;57902;49.638;11.070;2023-01-30T08:05:31;15.68;;;5.97;;
70444;SDS011;57902;49.638;11.070;2023-01-30T08:07:58;11.65;;;4.97;;
70444;SDS011;57902;49.638;11.070;2023-01-30T08:10:26;14.32;;;4.50;;
70444;SDS011;57902;49.638;11.070;2023-01-30T08:12:52;11.65;;;4.88;;
70444;SDS011;57902;49.638;11.070;2023-01-30T08:15:19;13.55;;;4.88;;
70444;SDS011;57902;49.638;11.070;2023-01-30T08:17:54;10.48;;;4.35;;
70444;SDS011;57902;49.638;11.070;2023-01-30T08:20:22;13.98;;;5.30;;
70444;SDS011;57902;49.638;11.070;2023-01-30T08:22:51;10.20;;;4.20;;
70444;SDS011;57902;49.638;11.070;2023-01-30T08:25:17;11.40;;;4.43;;
70444;SDS011;57902;49.638;11.070;2023-01-30T08:27:44;13.80;;;4.53;;
70444;SDS011;57902;49.638;11.070;2023-01-30T08:30:11;12.82;;;5.03;;
70444;SDS011;57902;49.638;11.070;2023-01-30T08:32:38;13.38;;;4.43;;
70444;SDS011;57902;49.638;11.070;2023-01-30T08:35:04;19.40;;;6.07;;
70444;SDS011;57902;49.638;11.070;2023-01-30T08:37:31;13.02;;;4.47;;
70444;SDS011;57902;49.638;11.070;2023-01-30T08:39:58;12.93;;;4.85;;
70444;SDS011;57902;49.638;11.070;2023-01-30T08:42:24;37.80;;;9.05;;
70444;SDS011;57902;49.638;11.070;2023-01-30T08:44:50;20.65;;;6.20;;
70444;SDS011;57902;49.638;11.070;2023-01-30T08:47:17;21.25;;;6.32;;
70444;SDS011;57902;49.638;11.070;2023-01-30T08:49:43;18.33;;;6.03;;
70444;SDS011;57902;49.638;11.070;2023-01-30T08:52:10;22.95;;;7.07;;
70444;SDS011;57902;49.638;11.070;2023-01-30T08:54:36;14.35;;;5.22;;
70444;SDS011;57902;49.638;11.070;2023-01-30T08:57:03;19.00;;;6.70;;
70444;SDS011;57902;49.638;11.070;2023-01-30T08:59:29;19.77;;;5.75;;
70444;SDS011;57902;49.638;11.070;2023-01-30T09:01:56;14.75;;;4.82;;
70444;SDS011;57902;49.638;11.070;2023-01-30T09:04:22;21.65;;;6.28;;
70444;SDS011;57902;49.638;11.070;2023-01-30T09:06:51;14.73;;;5.15;;
70444;SDS011;57902;49.638;11.070;2023-01-30T09:09:17;10.05;;;4.03;;
70444;SDS011;57902;49.638;11.070;2023-01-30T09:11:44;12.77;;;4.80;;
70444;SDS011;57902;49.638;11.070;2023-01-30T09:14:13;13.85;;;4.88;;
70444;SDS011;57902;49.638;11.070;2023-01-30T09:16:45;17.80;;;6.00;;
70444;SDS011;57902;49.638;11.070;2023-01-30T09:19:12;22.35;;;6.43;;
70444;SDS011;57902;49.638;11.070;2023-01-30T09:21:39;12.98;;;4.38;;
70444;SDS011;57902;49.638;11.070;2023-01-30T09:24:05;13.05;;;4.70;;
70444;SDS011;57902;49.638;11.070;2023-01-30T09:26:32;20.70;;;6.00;;
70444;SDS011;57902;49.638;11.070;2023-01-30T09:28:58;12.98;;;4.90;;
70444;SDS011;57902;49.638;11.070;2023-01-30T09:31:25;16.85;;;5.40;;
70444;SDS011;57902;49.638;11.070;2023-01-30T09:33:51;15.02;;;5.18;;
70444;SDS011;57902;49.638;11.070;2023-01-30T09:36:18;14.15;;;4.35;;
70444;SDS011;57902;49.638;11.070;2023-01-30T09:38:44;17.30;;;5.53;;
70444;SDS011;57902;49.638;11.070;2023-01-30T09:41:14;11.65;;;4.13;;
70444;SDS011;57902;49.638;11.070;2023-01-30T09:47:12;11.98;;;4.45;;
70444;SDS011;57902;49.638;11.070;2023-01-30T09:50:03;16.77;;;4.38;;
70444;SDS011;57902;49.638;11.070;2023-01-30T09:55:20;13.02;;;4.40;;
70444;SDS011;57902;49.638;11.070;2023-01-30T09:57:48;11.95;;;4.30;;
70444;SDS011;57902;49.638;11.070;2023-01-30T10:03:38;12.00;;;4.22;;
70444;SDS011;57902;49.638;11.070;2023-01-30T10:06:04;13.10;;;4.40;;
70444;SDS011;57902;49.638;11.070;2023-01-30T10:25:53;19.23;;;5.10;;
70444;SDS011;57902;49.638;11.070;2023-01-30T10:31:57;17.38;;;5.35;;
70444;SDS011;57902;49.638;11.070;2023-01-30T10:34:28;10.82;;;3.70;;
70444;SDS011;57902;49.638;11.070;2023-01-30T10:37:06;10.38;;;3.47;;
70444;SDS011;57902;49.638;11.070;2023-01-30T10:42:49;12.45;;;4.18;;
70444;SDS011;57902;49.638;11.070;2023-01-30T10:45:21;13.57;;;3.97;;
70444;SDS011;57902;49.638;11.070;2023-01-30T10:48:00;12.00;;;4.18;;
70444;SDS011;57902;49.638;11.070;2023-01-30T10:50:58;13.55;;;4.38;;
70444;SDS011;57902;49.638;11.070;2023-01-30T10:53:39;14.02;;;3.97;;
70444;SDS011;57902;49.638;11.070;2023-01-30T10:56:17;11.10;;;3.90;;
70444;SDS011;57902;49.638;11.070;2023-01-30T10:58:53;11.32;;;4.50;;
70444;SDS011;57902;49.638;11.070;2023-01-30T11:01:54;9.55;;;3.35;;
70444;SDS011;57902;49.638;11.070;2023-01-30T11:06:57;15.75;;;4.80;;
70444;SDS011;57902;49.638;11.070;2023-01-30T11:09:36;14.25;;;4.43;;
70444;SDS011;57902;49.638;11.070;2023-01-30T11:12:04;10.02;;;3.05;;
70444;SDS011;57902;49.638;11.070;2023-01-30T11:14:48;10.80;;;3.63;;
70444;SDS011;57902;49.638;11.070;2023-01-30T11:17:17;10.32;;;3.53;;
70444;SDS011;57902;49.638;11.070;2023-01-30T11:19:52;7.85;;;3.30;;
70444;SDS011;57902;49.638;11.070;2023-01-30T11:22:22;9.35;;;3.17;;
70444;SDS011;57902;49.638;11.070;2023-01-30T11:24:59;9.27;;;3.67;;
70444;SDS011;57902;49.638;11.070;2023-01-30T11:27:28;7.80;;;2.72;;
70444;SDS011;57902;49.638;11.070;2023-01-30T11:30:16;9.43;;;3.42;;
70444;SDS011;57902;49.638;11.070;2023-01-30T11:32:47;8.73;;;2.80;;
70444;SDS011;57902;49.638;11.070;2023-01-30T11:35:27;8.15;;;3.00;;
70444;SDS011;57902;49.638;11.070;2023-01-30T11:38:09;10.00;;;3.17;;
70444;SDS011;57902;49.638;11.070;2023-01-30T11:40:38;10.05;;;3.20;;
70444;SDS011;57902;49.638;11.070;2023-01-30T11:43:10;7.80;;;2.92;;
70444;SDS011;57902;49.638;11.070;2023-01-30T11:45:48;5.22;;;2.05;;
70444;SDS011;57902;49.638;11.070;2023-01-30T11:48:19;8.63;;;3.25;;
70444;SDS011;57902;49.638;11.070;2023-01-30T11:51:09;7.15;;;2.90;;
70444;SDS011;57902;49.638;11.070;2023-01-30T11:53:40;7.75;;;2.85;;
70444;SDS011;57902;49.638;11.070;2023-01-30T11:56:24;7.68;;;2.90;;
70444;SDS011;57902;49.638;11.070;2023-01-30T12:04:54;7.03;;;2.80;;
70444;SDS011;57902;49.638;11.070;2023-01-30T12:07:23;6.53;;;2.63;;
70444;SDS011;57902;49.638;11.070;2023-01-30T12:09:54;11.23;;;3.40;;
70444;SDS011;57902;49.638;11.070;2023-01-30T12:12:30;12.77;;;3.88;;
70444;SDS011;57902;49.638;11.070;2023-01-30T12:17:46;8.48;;;3.65;;
70444;SDS011;57902;49.638;11.070;2023-01-30T12:20:24;7.78;;;3.17;;
70444;SDS011;57902;49.638;11.070;2023-01-30T12:23:13;7.82;;;3.25;;
70444;SDS011;57902;49.638;11.070;2023-01-30T12:26:19;8.68;;;3.17;;
70444;SDS011;57902;49.638;11.070;2023-01-30T12:28:52;8.20;;;3.05;;
70444;SDS011;57902;49.638;11.070;2023-01-30T12:31:26;9.45;;;3.30;;
70444;SDS011;57902;49.638;11.070;2023-01-30T12:34:08;8.73;;;3.38;;
70444;SDS011;57902;49.638;11.070;2023-01-30T12:36:50;6.47;;;2.72;;
70444;SDS011;57902;49.638;11.070;2023-01-30T12:39:35;8.13;;;3.28;;
70444;SDS011;57902;49.638;11.070;2023-01-30T12:50:26;8.90;;;3.13;;
70444;SDS011;57902;49.638;11.070;2023-01-30T12:53:18;6.47;;;2.80;;
70444;SDS011;57902;49.638;11.070;2023-01-30T12:59:03;7.85;;;3.05;;
70444;SDS011;57902;49.638;11.070;2023-01-30T13:04:49;7.47;;;3.08;;
70444;SDS011;57902;49.638;11.070;2023-01-30T13:07:40;8.88;;;3.33;;
70444;SDS011;57902;49.638;11.070;2023-01-30T13:12:59;8.27;;;3.55;;
70444;SDS011;57902;49.638;11.070;2023-01-30T13:15:40;9.80;;;3.60;;
70444;SDS011;57902;49.638;11.070;2023-01-30T13:18:33;10.43;;;4.13;;
70444;SDS011;57902;49.638;11.070;2023-01-30T13:21:13;9.02;;;3.20;;
70444;SDS011;57902;49.638;11.070;2023-01-30T13:26:43;11.48;;;4.18;;
70444;SDS011;57902;49.638;11.070;2023-01-30T13:32:02;15.25;;;5.32;;
70444;SDS011;57902;49.638;11.070;2023-01-30T13:34:35;14.05;;;4.28;;
70444;SDS011;57902;49.638;11.070;2023-01-30T13:37:07;13.07;;;4.32;;
70444;SDS011;57902;49.638;11.070;2023-01-30T13:40:07;9.35;;;3.30;;
70444;SDS011;57902;49.638;11.070;2023-01-30T13:42:55;14.18;;;4.30;;
70444;SDS011;57902;49.638;11.070;2023-01-30T13:45:31;11.35;;;3.22;;
70444;SDS011;57902;49.638;11.070;2023-01-30T13:54:29;22.63;;;5.93;;
70444;SDS011;57902;49.638;11.070;2023-01-30T14:02:34;7.13;;;2.58;;
70444;SDS011;57902;49.638;11.070;2023-01-30T14:05:01;12.48;;;4.05;;
70444;SDS011;57902;49.638;11.070;2023-01-30T14:07:37;13.38;;;4.30;;
70444;SDS011;57902;49.638;11.070;2023-01-30T14:15:04;8.27;;;3.25;;
70444;SDS011;57902;49.638;11.070;2023-01-30T14:20:25;13.80;;;4.13;;
70444;SDS011;57902;49.638;11.070;2023-01-30T14:22:54;8.52;;;3.58;;
70444;SDS011;57902;49.638;11.070;2023-01-30T14:25:30;11.30;;;3.58;;
70444;SDS011;57902;49.638;11.070;2023-01-30T14:33:00;20.35;;;5.45;;
70444;SDS011;57902;49.638;11.070;2023-01-30T14:35:30;20.15;;;5.70;;
70444;SDS011;57902;49.638;11.070;2023-01-30T14:38:14;16.27;;;4.60;;
70444;SDS011;57902;49.638;11.070;2023-01-30T14:40:43;14.70;;;4.18;;
70444;SDS011;57902;49.638;11.070;2023-01-30T14:46:01;12.32;;;3.53;;
70444;SDS011;57902;49.638;11.070;2023-01-30T14:48:44;11.98;;;4.32;;
70444;SDS011;57902;49.638;11.070;2023-01-30T14:51:27;12.32;;;3.88;;
70444;SDS011;57902;49.638;11.070;2023-01-30T14:53:57;11.70;;;4.30;;
70444;SDS011;57902;49.638;11.070;2023-01-30T14:56:36;10.85;;;4.32;;
70444;SDS011;57902;49.638;11.070;2023-01-30T14:59:48;11.88;;;3.88;;
70444;SDS011;57902;49.638;11.070;2023-01-30T15:04:45;9.32;;;3.60;;
70444;SDS011;57902;49.638;11.070;2023-01-30T15:18:08;8.23;;;2.88;;
70444;SDS011;57902;49.638;11.070;2023-01-30T15:32:20;7.05;;;2.47;;
70444;SDS011;57902;49.638;11.070;2023-01-30T15:34:59;11.40;;;3.50;;
70444;SDS011;57902;49.638;11.070;2023-01-30T15:37:50;10.05;;;2.92;;
70444;SDS011;57902;49.638;11.070;2023-01-30T15:40:20;7.75;;;3.10;;
70444;SDS011;57902;49.638;11.070;2023-01-30T15:46:01;13.13;;;3.72;;
70444;SDS011;57902;49.638;11.070;2023-01-30T15:49:42;12.35;;;3.72;;
70444;SDS011;57902;49.638;11.070;2023-01-30T15:51:54;18.73;;;5.93;;
70444;SDS011;57902;49.638;11.070;2023-01-30T15:54:26;17.05;;;4.97;;
70444;SDS011;57902;49.638;11.070;2023-01-30T15:56:52;11.10;;;4.10;;
70444;SDS011;57902;49.638;11.070;2023-01-30T15:59:27;14.23;;;4.15;;
70444;SDS011;57902;49.638;11.070;2023-01-30T16:02:24;10.70;;;3.90;;
70444;SDS011;57902;49.638;11.070;2023-01-30T16:07:43;17.48;;;4.50;;
70444;SDS011;57902;49.638;11.070;2023-01-30T16:10:13;26.92;;;8.38;;
70444;SDS011;57902;49.638;11.070;2023-01-30T16:12:42;10.48;;;3.67;;
70444;SDS011;57902;49.638;11.070;2023-01-30T16:15:26;24.10;;;6.78;;
70444;SDS011;57902;49.638;11.070;2023-01-30T16:18:00;19.50;;;6.15;;
70444;SDS011;57902;49.638;11.070;2023-01-30T16:20:45;18.58;;;5.82;;
70444;SDS011;57902;49.638;11.070;2023-01-30T16:23:37;18.15;;;5.57;;
70444;SDS011;57902;49.638;11.070;2023-01-30T16:26:08;17.42;;;5.35;;
70444;SDS011;57902;49.638;11.070;2023-01-30T16:28:47;21.52;;;6.50;;
70444;SDS011;57902;49.638;11.070;2023-01-30T16:31:16;25.33;;;7.65;;
70444;SDS011;57902;49.638;11.070;2023-01-30T16:33:50;22.17;;;6.20;;
70444;SDS011;57902;49.638;11.070;2023-01-30T16:38:47;17.42;;;5.32;;
70444;SDS011;57902;49.638;11.070;2023-01-30T16:44:19;21.15;;;7.25;;
70444;SDS011;57902;49.638;11.070;2023-01-30T16:54:45;12.60;;;4.40;;
70444;SDS011;57902;49.638;11.070;2023-01-30T16:57:23;11.98;;;4.28;;
70444;SDS011;57902;49.638;11.070;2023-01-30T17:00:27;14.73;;;5.32;;
70444;SDS011;57902;49.638;11.070;2023-01-30T17:03:00;11.48;;;3.55;;
70444;SDS011;57902;49.638;11.070;2023-01-30T17:05:35;14.23;;;4.38;;
70444;SDS011;57902;49.638;11.070;2023-01-30T17:08:04;13.88;;;4.40;;
70444;SDS011;57902;49.638;11.070;2023-01-30T17:18:59;8.63;;;3.50;;
70444;SDS011;57902;49.638;11.070;2023-01-30T17:21:27;11.27;;;4.30;;
70444;SDS011;57902;49.638;11.070;2023-01-30T17:23:57;12.73;;;4.22;;
70444;SDS011;57902;49.638;11.070;2023-01-30T17:26:26;9.40;;;3.35;;
70444;SDS011;57902;49.638;11.070;2023-01-30T17:28:53;12.57;;;4.10;;
70444;SDS011;57902;49.638;11.070;2023-01-30T17:31:20;14.95;;;4.47;;
70444;SDS011;57902;49.638;11.070;2023-01-30T17:33:47;16.35;;;4.63;;
70444;SDS011;57902;49.638;11.070;2023-01-30T17:36:26;13.60;;;4.60;;
70444;SDS011;57902;49.638;11.070;2023-01-30T17:38:54;10.48;;;3.83;;
70444;SDS011;57902;49.638;11.070;2023-01-30T17:41:29;10.00;;;3.97;;
70444;SDS011;57902;49.638;11.070;2023-01-30T17:43:57;9.50;;;3.60;;
70444;SDS011;57902;49.638;11.070;2023-01-30T17:49:13;15.23;;;5.00;;
70444;SDS011;57902;49.638;11.070;2023-01-30T17:51:41;10.98;;;3.90;;
70444;SDS011;57902;49.638;11.070;2023-01-30T17:54:09;8.88;;;3.58;;